Hazen, ND

7:08 AM CDT on May 20, 2018 (GMT -0500)
Mercer County Regional

Weather History for KHZE - December, 2012

Change the Weather History Date:

Monday, December 3, 2012

  Actual Average (KN60) Record (KN60)
Temperature  
Mean Temperature 36 °F -  
Max Temperature 48 °F 28 °F 48 °F (1999)
Min Temperature 21 °F 13 °F -15 °F (2006)
Degree Days  
Heating Degree Days 30    
Moisture  
Dew Point 27 °F    
Average Humidity 64    
Maximum Humidity 93    
Minimum Humidity 43    
Precipitation  
Precipitation 0.02 in - - ()
Sea Level Pressure  
Sea Level Pressure 29.70 in    
Wind  
Wind Speed 13 mph (WNW)    
Max Wind Speed 34 mph    
Max Gust Speed 44 mph    
Visibility 10 miles    
Events Rain    
Averages and records for this station are not official NWS values.
T = Trace of Precipitation, MM = Missing Value Source: NWS Daily Summary

Daily Weather History Graph

Daily Weather History Graph

Search for Another Location

Airport or City:

Astronomy

Dec. 03, 2012 Rise Set
Actual Time 8:15 AM CST 4:57 PM CST
Civil Twilight 7:40 AM CST 5:32 PM CST
Nautical Twilight 7:01 AM CST 6:10 PM CST
Astronomical Twilight 6:24 AM CST 6:47 PM CST
Moon 9:57 PM CST (12/3) 11:29 AM CST (12/3)
Length of Visible Light 9h 51m
Length of Day
8h 41m
Waning Gibbous, 78% of the Moon is Illuminated
Dec 3
Waning Gibbous
Dec 6
Last Quarter
Dec 13
New
Dec 19
First Quarter
Dec 28
Full

Hourly Weather History & Observations

Time (CST) Temp. Windchill Dew Point Humidity Pressure Visibility Wind Dir Wind Speed Gust Speed Precip Events Conditions
12:15 AM 35.6 °F - 32.0 °F 87% 29.31 in 10.0 mi Calm Calm - N/A   Overcast
12:55 AM 37.4 °F 33.8 °F 32.0 °F 81% 29.30 in 10.0 mi West 4.6 mph - N/A   Overcast
1:15 AM 39.2 °F 33.6 °F 32.0 °F 75% 29.34 in 10.0 mi SW 8.1 mph - N/A   Overcast
1:35 AM 41.0 °F 35.2 °F 32.0 °F 70% 29.35 in 10.0 mi WSW 9.2 mph - N/A   Overcast
1:55 AM 41.0 °F 33.1 °F 32.0 °F 70% 29.37 in 10.0 mi WSW 15.0 mph - N/A   Scattered Clouds
2:15 AM 44.6 °F 38.1 °F 32.0 °F 61% 29.40 in 10.0 mi WNW 13.8 mph 21.9 mph N/A   Mostly Cloudy
2:35 AM 48.2 °F - 35.6 °F 62% 29.43 in 10.0 mi WNW 16.1 mph 29.9 mph N/A   Overcast
2:55 AM 48.2 °F - 37.4 °F 66% 29.47 in 10.0 mi West 11.5 mph 24.2 mph N/A   Overcast
3:15 AM 46.4 °F 39.2 °F 39.2 °F 76% 29.49 in 10.0 mi West 18.4 mph 21.9 mph N/A Rain Light Rain
3:35 AM 44.6 °F 38.8 °F 41.0 °F 87% 29.50 in 6.0 mi West 11.5 mph 17.3 mph 0.02 in Rain Light Rain
3:55 AM 44.6 °F 38.8 °F 41.0 °F 87% 29.51 in 10.0 mi West 11.5 mph 17.3 mph 0.02 in Rain Light Rain
4:15 AM 42.8 °F 36.6 °F 39.2 °F 87% 29.51 in 10.0 mi WSW 11.5 mph - N/A   Overcast
4:35 AM 41.0 °F 33.9 °F 39.2 °F 93% 29.52 in 10.0 mi WSW 12.7 mph - N/A   Overcast
4:55 AM 41.0 °F 34.3 °F 39.2 °F 93% 29.53 in 10.0 mi West 11.5 mph - N/A   Overcast
5:15 AM 42.8 °F 37.0 °F 35.6 °F 76% 29.54 in 10.0 mi West 10.4 mph - N/A   Overcast
5:35 AM 41.0 °F 34.7 °F 35.6 °F 81% 29.55 in 10.0 mi West 10.4 mph - N/A   Overcast
5:55 AM 41.0 °F 34.7 °F 32.0 °F 70% 29.55 in 10.0 mi West 10.4 mph - N/A   Overcast
6:15 AM 42.8 °F 34.8 °F 30.2 °F 61% 29.56 in 10.0 mi WNW 17.3 mph 25.3 mph N/A   Mostly Cloudy
6:35 AM 44.6 °F 36.9 °F 28.4 °F 53% 29.57 in 10.0 mi WNW 18.4 mph 25.3 mph N/A   Partly Cloudy
6:55 AM 44.6 °F 36.6 °F 28.4 °F 53% 29.58 in 10.0 mi WNW 19.6 mph 27.6 mph N/A   Clear
7:15 AM 44.6 °F 36.6 °F 28.4 °F 53% 29.59 in 10.0 mi WNW 19.6 mph 26.5 mph N/A   Clear
7:35 AM 42.8 °F 34.3 °F 26.6 °F 53% 29.60 in 10.0 mi WNW 19.6 mph 25.3 mph N/A   Clear
7:55 AM 42.8 °F 35.1 °F 26.6 °F 53% 29.61 in 10.0 mi WNW 16.1 mph 26.5 mph N/A   Clear
8:15 AM 42.8 °F 34.5 °F 26.6 °F 53% 29.63 in 10.0 mi WNW 18.4 mph - N/A   Clear
8:35 AM 41.0 °F 32.8 °F 26.6 °F 57% 29.64 in 10.0 mi WNW 16.1 mph 21.9 mph N/A   Clear
8:55 AM 39.2 °F 32.0 °F 26.6 °F 61% 29.65 in 10.0 mi West 11.5 mph - N/A   Clear
9:15 AM 39.2 °F 31.2 °F 26.6 °F 61% 29.65 in 10.0 mi West 13.8 mph - N/A   Clear
9:35 AM 41.0 °F 33.9 °F 26.6 °F 57% 29.66 in 10.0 mi West 12.7 mph - N/A   Clear
9:55 AM 42.8 °F 36.2 °F 26.6 °F 53% 29.67 in 10.0 mi West 12.7 mph - N/A   Clear
10:15 AM 44.6 °F 36.9 °F 26.6 °F 49% 29.67 in 10.0 mi West 18.4 mph 25.3 mph N/A   Clear
10:35 AM 44.6 °F 35.7 °F 26.6 °F 49% 29.67 in 10.0 mi WNW 24.2 mph 32.2 mph N/A   Clear
10:55 AM 46.4 °F 37.2 °F 24.8 °F 43% 29.69 in 10.0 mi WNW 29.9 mph 36.8 mph N/A   Clear
11:15 AM 46.4 °F 37.5 °F 24.8 °F 43% 29.69 in 10.0 mi WNW 27.6 mph 40.3 mph N/A   Clear
11:35 AM 46.4 °F 37.5 °F 24.8 °F 43% 29.70 in 10.0 mi WNW 27.6 mph 39.1 mph N/A   Clear
11:55 AM 46.4 °F 37.7 °F 24.8 °F 43% 29.70 in 10.0 mi WNW 26.5 mph 39.1 mph N/A   Clear
12:15 PM 46.4 °F 37.4 °F 24.8 °F 43% 29.70 in 10.0 mi West 28.8 mph 34.5 mph N/A   Clear
12:35 PM 46.4 °F 37.7 °F 24.8 °F 43% 29.70 in 10.0 mi WNW 26.5 mph 34.5 mph N/A   Clear
12:55 PM 46.4 °F 37.7 °F 24.8 °F 43% 29.70 in 10.0 mi WNW 26.5 mph 38.0 mph N/A   Clear
1:15 PM 46.4 °F 37.5 °F 24.8 °F 43% 29.71 in 10.0 mi West 27.6 mph 39.1 mph N/A   Clear
1:35 PM 46.4 °F 37.2 °F 24.8 °F 43% 29.71 in 10.0 mi WNW 29.9 mph 43.7 mph N/A   Clear
1:55 PM 46.4 °F 36.9 °F 26.6 °F 46% 29.72 in 10.0 mi WNW 32.2 mph 40.3 mph N/A   Clear
2:15 PM 46.4 °F 36.5 °F 26.6 °F 46% 29.72 in 10.0 mi WNW 34.5 mph 43.7 mph N/A   Clear
2:35 PM 46.4 °F 37.5 °F 26.6 °F 46% 29.73 in 10.0 mi WNW 27.6 mph 39.1 mph N/A   Clear
2:55 PM 46.4 °F 38.1 °F 26.6 °F 46% 29.74 in 10.0 mi WNW 24.2 mph 38.0 mph N/A   Clear
3:15 PM 46.4 °F 37.5 °F 26.6 °F 46% 29.75 in 10.0 mi WNW 27.6 mph 35.7 mph N/A   Clear
3:35 PM 44.6 °F 35.5 °F 26.6 °F 49% 29.75 in 10.0 mi WNW 25.3 mph 32.2 mph N/A   Clear
3:55 PM 42.8 °F 33.8 °F 26.6 °F 53% 29.77 in 10.0 mi WNW 21.9 mph 34.5 mph N/A   Clear
4:15 PM 39.2 °F 29.6 °F 24.8 °F 56% 29.79 in 10.0 mi NW 19.6 mph 27.6 mph N/A   Clear
4:35 PM 37.4 °F 28.5 °F 24.8 °F 60% 29.80 in 10.0 mi WNW 15.0 mph 20.7 mph N/A   Clear
4:55 PM 35.6 °F 26.2 °F 24.8 °F 65% 29.81 in 10.0 mi NW 15.0 mph - N/A   Clear
5:15 PM 33.8 °F 24.3 °F 24.8 °F 70% 29.83 in 10.0 mi NW 13.8 mph - N/A   Clear
5:35 PM 33.8 °F 26.4 °F 23.0 °F 65% 29.84 in 10.0 mi WNW 9.2 mph - N/A   Clear
5:55 PM 32.0 °F 23.6 °F 23.0 °F 69% 29.85 in 10.0 mi West 10.4 mph 17.3 mph N/A   Clear
6:15 PM 32.0 °F 23.6 °F 23.0 °F 69% 29.86 in 10.0 mi West 10.4 mph 18.4 mph N/A   Clear
6:35 PM 32.0 °F 23.6 °F 23.0 °F 69% 29.87 in 10.0 mi WNW 10.4 mph - N/A   Clear
6:55 PM 32.0 °F 24.8 °F 23.0 °F 69% 29.88 in 10.0 mi West 8.1 mph - N/A   Clear
7:15 PM 30.2 °F 22.6 °F 23.0 °F 75% 29.89 in 10.0 mi WSW 8.1 mph - N/A   Clear
7:35 PM 28.4 °F 20.4 °F 21.2 °F 74% 29.91 in 10.0 mi WSW 8.1 mph - N/A   Clear
7:55 PM 28.4 °F 21.2 °F 21.2 °F 74% 29.93 in 10.0 mi WSW 6.9 mph - N/A   Clear
8:15 PM 28.4 °F 20.4 °F 21.2 °F 74% 29.94 in 10.0 mi West 8.1 mph - N/A   Clear
8:35 PM 26.6 °F 17.5 °F 19.4 °F 74% 29.94 in 10.0 mi West 9.2 mph - N/A   Clear
8:55 PM 26.6 °F 19.1 °F 19.4 °F 74% 29.95 in 10.0 mi NNW 6.9 mph - N/A   Clear
9:15 PM 24.8 °F 20.5 °F 19.4 °F 80% 29.95 in 10.0 mi WNW 3.5 mph - N/A   Partly Cloudy
9:35 PM 24.8 °F 16.9 °F 17.6 °F 74% 29.96 in 10.0 mi NW 6.9 mph - N/A   Mostly Cloudy
9:55 PM 24.8 °F 17.9 °F 19.4 °F 80% 29.96 in 10.0 mi NNW 5.8 mph - N/A   Scattered Clouds
10:15 PM 23.0 °F 15.8 °F 17.6 °F 80% 29.98 in 10.0 mi North 5.8 mph - N/A   Scattered Clouds
10:35 PM 23.0 °F 18.4 °F 17.6 °F 80% 29.99 in 10.0 mi NNW 3.5 mph - N/A   Scattered Clouds
10:55 PM 23.0 °F 15.8 °F 17.6 °F 80% 29.99 in 10.0 mi NW 5.8 mph - N/A   Mostly Cloudy
11:15 PM 23.0 °F 17.0 °F 17.6 °F 80% 30.00 in 10.0 mi WNW 4.6 mph - N/A   Mostly Cloudy
11:35 PM 23.0 °F 14.7 °F 17.6 °F 80% 30.00 in 10.0 mi WNW 6.9 mph - N/A   Partly Cloudy
11:55 PM 21.2 °F 10.9 °F 15.8 °F 80% 30.00 in 10.0 mi West 9.2 mph - N/A   Clear